createdAt,value
2023-03-14T00:00:14.945Z,8.84
2023-03-14T00:02:41.717Z,8.93
2023-03-14T00:05:09.010Z,8.94
2023-03-14T00:07:37.336Z,8.87
2023-03-14T00:10:05.398Z,8.81
2023-03-14T00:12:32.183Z,8.80
2023-03-14T00:14:58.564Z,8.80
2023-03-14T00:17:24.950Z,8.81
2023-03-14T00:19:53.445Z,8.81
2023-03-14T00:22:19.721Z,8.74
2023-03-14T00:24:46.015Z,8.81
2023-03-14T00:27:12.327Z,8.74
2023-03-14T00:29:38.603Z,8.84
2023-03-14T00:32:04.927Z,8.90
2023-03-14T00:34:31.991Z,8.92
2023-03-14T00:36:58.453Z,8.83
2023-03-14T00:39:24.740Z,8.88
2023-03-14T00:41:51.058Z,8.87
2023-03-14T00:44:17.389Z,8.96
2023-03-14T00:46:43.820Z,8.91
2023-03-14T00:49:10.261Z,8.86
2023-03-14T00:51:36.536Z,8.86
2023-03-14T00:54:02.851Z,8.87
2023-03-14T00:56:29.178Z,8.91
2023-03-14T00:58:56.561Z,8.92
2023-03-14T01:01:22.934Z,8.84
2023-03-14T01:03:52.136Z,8.89
2023-03-14T01:06:20.189Z,8.91
2023-03-14T01:08:46.754Z,8.89
2023-03-14T01:11:18.112Z,8.87
2023-03-14T01:13:44.466Z,8.86
2023-03-14T01:16:11.462Z,8.85
2023-03-14T01:18:38.611Z,8.83
2023-03-14T01:21:10.057Z,8.88
2023-03-14T01:23:36.351Z,8.90
2023-03-14T01:26:02.722Z,8.82
2023-03-14T01:28:29.043Z,8.84
2023-03-14T01:30:55.334Z,8.86
2023-03-14T01:33:21.624Z,8.86
2023-03-14T01:35:50.577Z,8.86
2023-03-14T01:38:16.855Z,8.83
2023-03-14T01:40:44.484Z,8.88
2023-03-14T01:43:15.267Z,8.83
2023-03-14T01:46:13.561Z,8.84
2023-03-14T01:48:41.768Z,8.89
2023-03-14T01:51:10.167Z,8.86
2023-03-14T01:53:36.950Z,8.80
2023-03-14T01:56:04.744Z,8.86
2023-03-14T01:58:31.951Z,8.87
2023-03-14T02:00:59.698Z,8.93
2023-03-14T02:03:27.825Z,8.84
2023-03-14T02:05:56.676Z,8.90
2023-03-14T02:08:23.797Z,8.83
2023-03-14T02:10:50.590Z,8.81
2023-03-14T02:13:18.082Z,8.74
2023-03-14T02:15:44.490Z,8.73
2023-03-14T02:18:11.376Z,8.57
2023-03-14T02:20:52.418Z,8.64
2023-03-14T02:23:27.247Z,8.64
2023-03-14T02:26:06.881Z,8.75
2023-03-14T02:28:33.271Z,8.70
2023-03-14T02:30:59.835Z,8.81
2023-03-14T02:33:26.694Z,8.65
2023-03-14T02:35:56.557Z,8.68
2023-03-14T02:38:30.104Z,8.68
2023-03-14T02:40:56.412Z,8.82
2023-03-14T02:43:22.743Z,8.74
2023-03-14T02:45:49.900Z,8.80
2023-03-14T02:48:16.217Z,8.70
2023-03-14T02:50:42.977Z,8.67
2023-03-14T02:53:09.320Z,8.64
2023-03-14T02:55:35.681Z,8.64
2023-03-14T02:58:01.994Z,8.57
2023-03-14T03:00:28.459Z,8.61
2023-03-14T03:02:54.947Z,8.58
2023-03-14T03:05:21.273Z,8.65
2023-03-14T03:07:47.586Z,8.63
2023-03-14T03:10:13.927Z,8.71
2023-03-14T03:12:40.277Z,8.75
2023-03-14T03:15:06.857Z,8.69
2023-03-14T03:17:33.152Z,8.60
2023-03-14T03:19:59.450Z,8.83
2023-03-14T03:22:25.747Z,8.75
2023-03-14T03:24:52.047Z,8.79
2023-03-14T03:27:18.347Z,8.91
2023-03-14T03:29:44.756Z,9.04
2023-03-14T03:32:11.049Z,9.08
2023-03-14T03:34:37.324Z,9.05
2023-03-14T03:37:03.690Z,8.99
2023-03-14T03:39:29.991Z,9.07
2023-03-14T03:41:56.278Z,9.11
2023-03-14T03:44:22.594Z,9.14
2023-03-14T03:46:48.989Z,9.02
2023-03-14T03:49:15.270Z,8.92
2023-03-14T03:51:41.759Z,8.86
2023-03-14T03:54:08.032Z,8.87
2023-03-14T03:56:34.318Z,8.89
2023-03-14T03:59:00.651Z,8.91
2023-03-14T04:01:27.136Z,8.78
2023-03-14T04:03:53.699Z,8.74
2023-03-14T04:06:20.345Z,8.78
2023-03-14T04:08:46.694Z,8.76
2023-03-14T04:11:13.063Z,8.56
2023-03-14T04:13:39.385Z,8.67
2023-03-14T04:16:11.106Z,8.59
2023-03-14T04:18:37.430Z,8.59
2023-03-14T04:21:03.747Z,8.57
2023-03-14T04:23:30.768Z,8.51
2023-03-14T04:25:57.048Z,8.47
2023-03-14T04:28:23.348Z,8.50
2023-03-14T04:30:49.637Z,8.49
2023-03-14T04:33:18.150Z,8.36
2023-03-14T04:35:45.525Z,8.36
2023-03-14T04:38:11.977Z,8.30
2023-03-14T04:40:39.122Z,8.36
2023-03-14T04:43:05.416Z,8.34
2023-03-14T04:45:31.709Z,8.31
2023-03-14T04:47:57.988Z,8.28
2023-03-14T04:50:24.317Z,8.36
2023-03-14T04:52:50.608Z,8.37
2023-03-14T04:55:16.970Z,8.34
2023-03-14T04:57:43.286Z,8.31
2023-03-14T05:00:10.206Z,8.42
2023-03-14T05:02:36.528Z,8.34
2023-03-14T05:05:03.091Z,8.41
2023-03-14T05:07:29.432Z,8.36
2023-03-14T05:09:55.754Z,8.35
2023-03-14T05:12:22.169Z,8.38
2023-03-14T05:14:48.438Z,8.41
2023-03-14T05:17:15.421Z,8.39
2023-03-14T05:19:42.104Z,8.31
2023-03-14T05:22:08.497Z,8.34
2023-03-14T05:24:34.873Z,8.37
2023-03-14T05:27:01.258Z,8.39
2023-03-14T05:29:27.553Z,8.35
2023-03-14T05:31:53.856Z,8.39
2023-03-14T05:34:20.233Z,8.38
2023-03-14T05:36:46.532Z,8.46
2023-03-14T05:39:12.808Z,8.44
2023-03-14T05:41:39.179Z,8.37
2023-03-14T05:44:05.515Z,8.39
2023-03-14T05:46:31.830Z,8.40
2023-03-14T05:48:58.846Z,8.49
2023-03-14T05:51:25.171Z,8.44
2023-03-14T05:53:51.665Z,8.64
2023-03-14T05:56:17.980Z,8.64
2023-03-14T05:58:44.433Z,8.56
2023-03-14T06:01:10.749Z,8.52
2023-03-14T06:03:37.079Z,8.59
2023-03-14T06:06:03.554Z,8.55
2023-03-14T06:08:29.873Z,8.45
2023-03-14T06:10:57.547Z,8.50
2023-03-14T06:13:23.884Z,8.53
2023-03-14T06:15:50.216Z,8.61
2023-03-14T06:18:16.596Z,8.59
2023-03-14T06:20:42.966Z,8.46
2023-03-14T06:23:09.615Z,8.50
2023-03-14T06:25:36.597Z,8.57
2023-03-14T06:28:02.884Z,8.65
2023-03-14T06:30:29.247Z,8.58
2023-03-14T06:32:56.489Z,8.53
2023-03-14T06:35:23.588Z,8.77
2023-03-14T06:37:50.025Z,8.79
2023-03-14T06:40:18.784Z,8.68
2023-03-14T06:42:45.260Z,8.59
2023-03-14T06:45:12.080Z,8.72
2023-03-14T06:47:39.185Z,8.74
2023-03-14T06:50:06.593Z,8.75
2023-03-14T06:52:33.185Z,8.84
2023-03-14T06:54:59.578Z,8.75
2023-03-14T06:57:25.976Z,8.82
2023-03-14T06:59:52.359Z,8.93
2023-03-14T07:02:19.412Z,8.94
2023-03-14T07:04:46.585Z,8.96
2023-03-14T07:07:12.996Z,8.91
2023-03-14T07:09:39.294Z,8.96
2023-03-14T07:12:06.334Z,8.84
2023-03-14T07:14:32.656Z,8.88
2023-03-14T07:16:58.994Z,8.99
2023-03-14T07:19:25.408Z,9.03
2023-03-14T07:21:51.690Z,9.10
2023-03-14T07:24:18.031Z,9.07
2023-03-14T07:26:44.326Z,9.24
2023-03-14T07:29:10.622Z,9.21
2023-03-14T07:31:36.932Z,9.27
2023-03-14T07:34:03.919Z,9.41
2023-03-14T07:36:30.209Z,9.49
2023-03-14T07:38:56.617Z,9.38
2023-03-14T07:41:23.916Z,9.76
2023-03-14T07:43:50.343Z,9.91
2023-03-14T07:46:16.814Z,10.09
2023-03-14T07:48:43.171Z,10.19
2023-03-14T07:51:09.484Z,10.11
2023-03-14T07:53:35.966Z,9.89
2023-03-14T07:56:02.246Z,10.12
2023-03-14T07:58:28.563Z,10.21
2023-03-14T08:00:54.954Z,10.14
2023-03-14T08:03:21.259Z,10.39
2023-03-14T08:05:51.689Z,10.24
2023-03-14T08:08:18.275Z,10.24
2023-03-14T08:10:44.599Z,10.42
2023-03-14T08:13:11.323Z,10.65
2023-03-14T08:15:38.055Z,10.73
2023-03-14T08:18:04.724Z,10.71
2023-03-14T08:20:31.404Z,10.66
2023-03-14T08:22:58.856Z,10.78
2023-03-14T08:25:25.589Z,10.68
2023-03-14T08:27:52.046Z,10.74
2023-03-14T08:30:20.359Z,10.52
2023-03-14T08:32:46.787Z,10.57
2023-03-14T08:35:13.277Z,10.65
2023-03-14T08:37:39.630Z,10.53
2023-03-14T08:40:10.669Z,10.63
2023-03-14T08:42:37.406Z,10.61
2023-03-14T08:45:04.457Z,10.63
2023-03-14T08:47:30.810Z,10.80
2023-03-14T08:49:57.195Z,10.85
2023-03-14T08:52:23.679Z,10.93
2023-03-14T08:54:50.100Z,11.04
2023-03-14T08:57:16.558Z,10.83
2023-03-14T08:59:43.268Z,11.02
2023-03-14T09:02:13.417Z,10.88
2023-03-14T09:04:39.963Z,10.97
2023-03-14T09:07:06.361Z,11.01
2023-03-14T09:09:32.702Z,11.09
2023-03-14T09:11:59.072Z,11.19
2023-03-14T09:14:25.514Z,11.13
2023-03-14T09:16:51.852Z,11.06
2023-03-14T09:19:18.195Z,11.25
2023-03-14T09:21:44.507Z,11.43
2023-03-14T09:24:10.806Z,11.12
2023-03-14T09:26:37.138Z,11.04
2023-03-14T09:29:03.473Z,11.03
2023-03-14T09:31:30.497Z,11.07
2023-03-14T09:33:56.940Z,11.09
2023-03-14T09:36:23.423Z,10.68
2023-03-14T09:38:49.741Z,10.90
2023-03-14T09:41:25.518Z,10.80
2023-03-14T09:43:58.276Z,11.07
2023-03-14T09:46:24.591Z,11.07
2023-03-14T09:48:50.937Z,11.13
2023-03-14T09:51:18.488Z,11.16
2023-03-14T09:53:46.241Z,11.21
2023-03-14T09:56:18.180Z,11.21
2023-03-14T09:58:46.373Z,11.27
2023-03-14T10:01:16.045Z,11.10
2023-03-14T10:03:43.272Z,11.04
2023-03-14T10:06:12.233Z,11.16
2023-03-14T10:08:45.151Z,11.30
2023-03-14T10:11:17.919Z,11.19
2023-03-14T10:13:50.368Z,11.17
2023-03-14T10:16:16.773Z,11.13
2023-03-14T10:18:46.858Z,11.06
2023-03-14T10:21:22.279Z,11.16
2023-03-14T10:23:49.835Z,11.17
2023-03-14T10:26:17.474Z,11.37
2023-03-14T10:28:45.512Z,11.18
2023-03-14T10:31:12.170Z,11.35
2023-03-14T10:33:39.044Z,11.44
2023-03-14T10:36:24.051Z,11.24
2023-03-14T10:38:50.432Z,11.26
2023-03-14T10:41:24.578Z,11.13
2023-03-14T10:43:52.254Z,11.23
2023-03-14T10:46:19.784Z,11.29
2023-03-14T10:48:47.159Z,11.18
2023-03-14T10:51:31.502Z,11.41
2023-03-14T10:54:16.692Z,11.40
2023-03-14T10:56:42.989Z,11.42
2023-03-14T10:59:14.029Z,11.45
2023-03-14T11:01:56.480Z,11.39
2023-03-14T11:04:32.976Z,11.44
2023-03-14T11:07:04.030Z,11.32
2023-03-14T11:09:48.850Z,11.42
2023-03-14T11:12:21.311Z,11.49
2023-03-14T11:14:52.177Z,11.48
2023-03-14T11:17:28.603Z,11.58
2023-03-14T11:24:13.865Z,11.40
2023-03-14T11:27:01.989Z,11.61
2023-03-14T11:29:34.183Z,11.66
2023-03-14T11:32:05.200Z,11.78
2023-03-14T11:35:03.404Z,11.79
2023-03-14T11:37:43.969Z,11.74
2023-03-14T11:40:24.711Z,11.86
2023-03-14T11:43:00.629Z,12.08
2023-03-14T11:45:37.688Z,12.04
2023-03-14T11:51:33.374Z,11.66
2023-03-14T11:54:09.070Z,11.59
2023-03-14T11:56:43.241Z,11.31
2023-03-14T11:59:22.516Z,10.92
2023-03-14T12:02:01.520Z,10.63
2023-03-14T12:04:52.896Z,10.77
2023-03-14T12:07:33.889Z,10.66
2023-03-14T12:10:00.397Z,10.86
2023-03-14T12:12:28.795Z,10.83
2023-03-14T12:15:01.467Z,10.61
2023-03-14T12:17:44.077Z,10.82
2023-03-14T12:20:25.292Z,10.77
2023-03-14T12:23:13.013Z,10.76
2023-03-14T12:25:39.566Z,10.88
2023-03-14T12:28:20.072Z,10.92
2023-03-14T12:30:46.821Z,10.82
2023-03-14T12:33:21.139Z,10.85
2023-03-14T12:35:52.938Z,10.84
2023-03-14T12:38:42.347Z,10.81
2023-03-14T12:41:39.399Z,10.97
2023-03-14T12:44:51.719Z,10.87
2023-03-14T12:47:21.155Z,10.79
2023-03-14T12:49:53.286Z,10.88
2023-03-14T12:52:34.201Z,10.80
2023-03-14T12:55:37.316Z,10.87
2023-03-14T12:58:58.141Z,10.79
2023-03-14T13:01:24.669Z,10.80
2023-03-14T13:04:04.931Z,10.80
2023-03-14T13:06:57.847Z,10.86
2023-03-14T13:09:30.469Z,10.89
2023-03-14T13:12:02.906Z,10.88
2023-03-14T13:14:32.027Z,10.77
2023-03-14T13:17:19.278Z,10.72
2023-03-14T13:19:59.662Z,10.09
2023-03-14T13:22:29.954Z,10.06
2023-03-14T13:25:10.899Z,9.88
2023-03-14T13:27:38.693Z,9.54
2023-03-14T13:30:36.468Z,9.70
2023-03-14T13:33:05.923Z,9.65
2023-03-14T13:35:41.968Z,9.83
2023-03-14T13:38:18.982Z,9.92
2023-03-14T13:40:46.774Z,9.97
2023-03-14T13:43:25.906Z,9.83
2023-03-14T13:46:02.282Z,9.76
2023-03-14T13:48:31.293Z,9.92
2023-03-14T13:51:03.317Z,9.96
2023-03-14T13:53:29.876Z,10.13
2023-03-14T13:55:56.818Z,10.10
2023-03-14T13:58:29.822Z,10.23
2023-03-14T14:01:13.277Z,10.25
2023-03-14T14:03:42.331Z,10.33
2023-03-14T14:06:20.759Z,10.41
2023-03-14T14:08:47.310Z,10.44
2023-03-14T14:11:42.724Z,10.49
2023-03-14T14:14:18.633Z,10.55
2023-03-14T14:16:47.524Z,10.57
2023-03-14T14:19:16.151Z,9.57
2023-03-14T14:21:43.572Z,8.58
2023-03-14T14:24:15.586Z,8.41
2023-03-14T14:26:48.736Z,7.84
2023-03-14T14:29:27.000Z,7.57
2023-03-14T14:32:04.154Z,7.00
2023-03-14T14:34:40.600Z,6.90
2023-03-14T14:37:35.693Z,6.55
2023-03-14T14:40:19.906Z,6.29
2023-03-14T14:42:47.466Z,6.23
2023-03-14T14:45:22.585Z,6.08
2023-03-14T14:47:55.065Z,5.98
2023-03-14T14:50:32.315Z,5.69
2023-03-14T14:53:01.017Z,5.29
2023-03-14T14:55:41.494Z,5.24
2023-03-14T14:58:40.735Z,5.01
2023-03-14T15:01:23.436Z,4.96
2023-03-14T15:03:53.773Z,4.50
2023-03-14T15:06:21.172Z,4.44
2023-03-14T15:08:49.862Z,4.13
2023-03-14T15:11:25.112Z,4.13
2023-03-14T15:13:52.359Z,3.61
2023-03-14T15:16:25.278Z,3.53
2023-03-14T15:18:57.192Z,3.45
2023-03-14T15:21:25.007Z,3.31
2023-03-14T15:23:52.465Z,3.11
2023-03-14T15:26:22.250Z,3.31
2023-03-14T15:28:48.953Z,3.24
2023-03-14T15:31:18.391Z,2.90
2023-03-14T15:33:46.520Z,2.98
2023-03-14T15:36:23.377Z,2.81
2023-03-14T15:38:51.351Z,2.93
2023-03-14T15:41:19.256Z,2.98
2023-03-14T15:43:46.239Z,2.97
2023-03-14T15:46:13.778Z,2.98
2023-03-14T15:48:40.229Z,2.66
2023-03-14T15:51:06.735Z,2.94
2023-03-14T15:53:33.768Z,2.97
2023-03-14T15:56:00.276Z,2.88
2023-03-14T15:58:26.945Z,3.06
2023-03-14T16:00:53.674Z,3.02
2023-03-14T16:03:20.306Z,3.10
2023-03-14T16:05:46.861Z,3.10
2023-03-14T16:08:13.305Z,2.96
2023-03-14T16:10:40.243Z,2.98
2023-03-14T16:13:06.989Z,3.07
2023-03-14T16:15:33.470Z,3.00
2023-03-14T16:18:02.485Z,3.16
2023-03-14T16:20:45.494Z,3.02
2023-03-14T16:23:16.317Z,3.22
2023-03-14T16:25:45.759Z,3.28
2023-03-14T16:28:12.262Z,3.25
2023-03-14T16:30:38.712Z,3.36
2023-03-14T16:33:12.275Z,3.26
2023-03-14T16:35:39.977Z,3.26
2023-03-14T16:38:06.950Z,3.10
2023-03-14T16:40:33.676Z,3.34
2023-03-14T16:43:15.371Z,3.32
2023-03-14T16:45:42.855Z,3.26
2023-03-14T16:48:09.438Z,3.19
2023-03-14T16:50:35.867Z,3.21
2023-03-14T16:53:02.932Z,3.18
2023-03-14T16:55:29.514Z,3.42
2023-03-14T16:57:55.932Z,3.47
2023-03-14T17:00:22.838Z,3.36
2023-03-14T17:02:49.610Z,3.44
2023-03-14T17:05:16.149Z,3.28
2023-03-14T17:07:42.656Z,3.49
2023-03-14T17:10:11.156Z,3.42
2023-03-14T17:12:37.572Z,3.48
2023-03-14T17:15:04.299Z,3.46
2023-03-14T17:17:30.761Z,3.40
2023-03-14T17:19:57.469Z,3.60
2023-03-14T17:22:26.813Z,3.45
2023-03-14T17:24:56.099Z,3.59
2023-03-14T17:27:22.535Z,3.43
2023-03-14T17:29:49.001Z,3.66
2023-03-14T17:32:17.072Z,3.66
2023-03-14T17:34:43.850Z,3.74
2023-03-14T17:37:10.798Z,3.55
2023-03-14T17:39:39.938Z,3.52
2023-03-14T17:42:07.255Z,3.46
2023-03-14T17:44:34.690Z,3.47
2023-03-14T17:47:01.280Z,3.65
2023-03-14T17:49:28.225Z,3.62
2023-03-14T17:51:54.690Z,3.48
2023-03-14T17:54:21.182Z,3.53
2023-03-14T17:56:48.817Z,3.74
2023-03-14T17:59:15.941Z,3.65
2023-03-14T18:01:42.612Z,3.49
2023-03-14T18:04:09.243Z,3.40
2023-03-14T18:06:35.820Z,3.52
2023-03-14T18:09:04.665Z,3.58
2023-03-14T18:11:31.849Z,3.50
2023-03-14T18:14:01.567Z,3.49
2023-03-14T18:16:28.414Z,3.57
2023-03-14T18:18:57.644Z,3.41
2023-03-14T18:21:24.148Z,3.60
2023-03-14T18:23:51.235Z,3.64
2023-03-14T18:26:18.595Z,3.65
2023-03-14T18:28:46.854Z,3.60
2023-03-14T18:31:17.545Z,3.63
2023-03-14T18:33:45.488Z,3.64
2023-03-14T18:36:12.681Z,3.71
2023-03-14T18:38:43.258Z,3.68
2023-03-14T18:41:12.638Z,3.63
2023-03-14T18:43:39.584Z,3.59
2023-03-14T18:46:06.101Z,3.64
2023-03-14T18:48:33.091Z,3.73
2023-03-14T18:50:59.958Z,3.57
2023-03-14T18:53:31.947Z,3.66
2023-03-14T18:56:02.491Z,3.75
2023-03-14T18:58:29.574Z,3.82
2023-03-14T19:01:04.369Z,3.82
2023-03-14T19:03:32.809Z,3.77
2023-03-14T19:06:00.592Z,3.59
2023-03-14T19:08:28.512Z,3.73
2023-03-14T19:10:58.942Z,3.73
2023-03-14T19:13:27.374Z,3.73
2023-03-14T19:15:53.800Z,3.67
2023-03-14T19:18:20.187Z,3.62
2023-03-14T19:20:59.720Z,3.58
2023-03-14T19:23:27.481Z,3.48
2023-03-14T19:25:54.963Z,3.58
2023-03-14T19:28:22.051Z,3.66
2023-03-14T19:30:49.452Z,3.55
2023-03-14T19:33:17.211Z,3.71
2023-03-14T19:35:43.960Z,3.57
2023-03-14T19:38:10.950Z,3.45
2023-03-14T19:40:39.263Z,3.48
2023-03-14T19:43:06.565Z,3.44
2023-03-14T19:45:36.588Z,3.03
2023-03-14T19:48:06.010Z,3.26
2023-03-14T19:50:33.670Z,3.17
2023-03-14T19:53:03.412Z,3.28
2023-03-14T19:55:34.716Z,3.34
2023-03-14T19:58:01.313Z,3.28
2023-03-14T20:00:27.792Z,3.20
2023-03-14T20:02:54.364Z,3.24
2023-03-14T20:05:22.469Z,3.09
2023-03-14T20:07:50.024Z,3.11
2023-03-14T20:10:19.002Z,3.30
2023-03-14T20:12:46.146Z,3.27
2023-03-14T20:15:18.349Z,3.17
2023-03-14T20:17:51.223Z,3.07
2023-03-14T20:20:20.320Z,3.03
2023-03-14T20:22:47.554Z,3.16
2023-03-14T20:25:18.732Z,3.27
2023-03-14T20:27:46.898Z,3.32
2023-03-14T20:30:17.433Z,3.16
2023-03-14T20:32:45.257Z,3.05
2023-03-14T20:35:12.995Z,3.16
2023-03-14T20:37:40.232Z,2.86
2023-03-14T20:40:07.736Z,2.98
2023-03-14T20:42:34.704Z,2.98
2023-03-14T20:45:01.146Z,2.83
2023-03-14T20:47:27.699Z,2.94
2023-03-14T20:49:54.182Z,2.82
2023-03-14T20:52:20.662Z,2.84
2023-03-14T20:54:47.098Z,2.85
2023-03-14T20:57:15.259Z,2.77
2023-03-14T20:59:41.791Z,2.80
2023-03-14T21:02:10.415Z,2.89
2023-03-14T21:04:37.144Z,2.72
2023-03-14T21:07:03.807Z,2.57
2023-03-14T21:09:30.215Z,2.74
2023-03-14T21:11:56.734Z,2.62
2023-03-14T21:14:23.252Z,2.67
2023-03-14T21:16:50.253Z,2.81
2023-03-14T21:19:17.286Z,2.59
2023-03-14T21:21:43.869Z,2.63
2023-03-14T21:24:10.480Z,2.68
2023-03-14T21:26:36.886Z,2.63
2023-03-14T21:29:04.573Z,2.69
2023-03-14T21:31:31.462Z,2.75
2023-03-14T21:33:59.180Z,2.86
2023-03-14T21:36:26.332Z,2.58
2023-03-14T21:38:53.046Z,2.47
2023-03-14T21:41:19.820Z,2.42
2023-03-14T21:43:46.297Z,2.44
2023-03-14T21:46:15.748Z,2.44
2023-03-14T21:48:42.214Z,2.43
2023-03-14T21:51:08.755Z,2.39
2023-03-14T21:53:35.422Z,2.31
2023-03-14T21:56:01.999Z,2.26
2023-03-14T21:58:28.537Z,2.31
2023-03-14T22:01:02.510Z,2.20
2023-03-14T22:03:30.186Z,2.37
2023-03-14T22:05:56.625Z,2.23
2023-03-14T22:08:23.105Z,2.18
2023-03-14T22:10:51.858Z,2.20
2023-03-14T22:13:19.961Z,2.46
2023-03-14T22:15:47.993Z,2.36
2023-03-14T22:18:18.445Z,2.03
2023-03-14T22:20:45.862Z,2.22
2023-03-14T22:23:12.933Z,2.08
2023-03-14T22:25:43.725Z,2.18
2023-03-14T22:28:10.767Z,2.12
2023-03-14T22:30:37.762Z,2.21
2023-03-14T22:33:04.872Z,2.36
2023-03-14T22:35:31.379Z,2.31
2023-03-14T22:37:57.959Z,2.31
2023-03-14T22:40:24.454Z,2.30
2023-03-14T22:42:54.244Z,2.24
2023-03-14T22:45:21.135Z,2.32
2023-03-14T22:47:47.885Z,2.28
2023-03-14T22:50:14.430Z,2.15
2023-03-14T22:52:40.903Z,2.15
2023-03-14T22:55:08.212Z,2.09
2023-03-14T22:57:34.879Z,2.28
2023-03-14T23:00:01.273Z,2.18
2023-03-14T23:02:27.648Z,2.21
2023-03-14T23:04:54.029Z,2.08
2023-03-14T23:07:20.433Z,2.13
2023-03-14T23:09:46.813Z,2.03
2023-03-14T23:12:17.486Z,2.08
2023-03-14T23:14:43.962Z,2.03
2023-03-14T23:17:10.493Z,1.99
2023-03-14T23:19:39.488Z,1.99
2023-03-14T23:22:09.543Z,1.78
2023-03-14T23:24:36.309Z,2.01
2023-03-14T23:27:03.313Z,1.88
2023-03-14T23:29:29.788Z,1.96
2023-03-14T23:31:56.213Z,1.83
2023-03-14T23:34:25.182Z,1.99
2023-03-14T23:36:51.591Z,1.82
2023-03-14T23:39:17.969Z,1.86
2023-03-14T23:41:44.765Z,1.98
2023-03-14T23:44:13.254Z,1.90
2023-03-14T23:46:39.711Z,1.77
2023-03-14T23:49:06.160Z,1.71
2023-03-14T23:51:32.604Z,1.85
2023-03-14T23:53:58.981Z,1.73
2023-03-14T23:56:25.441Z,1.80
2023-03-14T23:58:51.957Z,1.52
